createdAt,value
2023-06-01T00:00:09.969Z,10.90
2023-06-01T00:02:37.568Z,6.27
2023-06-01T00:05:05.431Z,10.67
2023-06-01T00:07:32.985Z,6.20
2023-06-01T00:10:03.541Z,8.40
2023-06-01T00:12:31.349Z,7.90
2023-06-01T00:14:58.955Z,12.30
2023-06-01T00:17:26.645Z,11.47
2023-06-01T00:19:54.299Z,13.03
2023-06-01T00:22:22.076Z,8.43
2023-06-01T00:24:49.594Z,9.97
2023-06-01T00:27:17.302Z,8.20
2023-06-01T00:29:44.906Z,9.20
2023-06-01T00:32:12.532Z,10.67
2023-06-01T00:34:40.064Z,12.67
2023-06-01T00:37:07.728Z,11.10
2023-06-01T00:39:35.258Z,13.40
2023-06-01T00:42:02.904Z,11.47
2023-06-01T00:44:30.512Z,11.03
2023-06-01T00:46:58.193Z,11.50
2023-06-01T00:49:25.800Z,14.03
2023-06-01T00:51:53.748Z,9.00
2023-06-01T00:54:21.548Z,9.90
2023-06-01T00:56:49.213Z,9.40
2023-06-01T00:59:16.770Z,10.70
2023-06-01T01:01:44.482Z,10.20
2023-06-01T01:04:12.164Z,7.57
2023-06-01T01:06:39.759Z,8.40
2023-06-01T01:09:07.315Z,11.53
2023-06-01T01:11:36.759Z,14.20
2023-06-01T01:14:13.179Z,15.37
2023-06-01T01:16:44.813Z,12.57
2023-06-01T01:19:35.109Z,12.83
2023-06-01T01:22:22.011Z,13.03
2023-06-01T01:24:55.596Z,15.40
2023-06-01T01:27:46.206Z,13.83
2023-06-01T01:30:14.785Z,16.67
2023-06-01T01:32:42.710Z,13.47
2023-06-01T01:35:10.894Z,16.13
2023-06-01T01:37:38.454Z,17.83
2023-06-01T01:40:06.402Z,17.23
2023-06-01T01:42:34.072Z,21.50
2023-06-01T01:45:01.708Z,18.87
2023-06-01T01:47:33.310Z,16.13
2023-06-01T01:50:03.317Z,18.40
2023-06-01T01:52:35.287Z,17.60
2023-06-01T01:55:03.214Z,17.97
2023-06-01T01:57:31.344Z,17.00
2023-06-01T01:59:59.266Z,17.40
2023-06-01T02:02:26.842Z,16.77
2023-06-01T02:04:54.527Z,16.93
2023-06-01T02:07:22.114Z,14.17
2023-06-01T02:09:49.740Z,19.07
2023-06-01T02:12:17.422Z,19.73
2023-06-01T02:14:45.093Z,20.07
2023-06-01T02:17:12.641Z,16.27
2023-06-01T02:19:40.304Z,17.80
2023-06-01T02:22:08.029Z,17.57
2023-06-01T02:24:35.843Z,18.97
2023-06-01T02:27:03.399Z,23.30
2023-06-01T02:29:31.061Z,18.53
2023-06-01T02:31:58.884Z,16.80
2023-06-01T02:34:26.861Z,19.43
2023-06-01T02:36:54.424Z,22.17
2023-06-01T02:39:22.024Z,17.00
2023-06-01T02:41:49.642Z,19.83
2023-06-01T02:44:17.238Z,13.13
2023-06-01T02:46:44.815Z,20.47
2023-06-01T02:49:12.435Z,20.73
2023-06-01T02:51:40.056Z,21.03
2023-06-01T02:54:07.709Z,17.13
2023-06-01T02:56:35.269Z,22.03
2023-06-01T02:59:02.844Z,24.23
2023-06-01T03:01:30.433Z,24.33
2023-06-01T03:03:58.106Z,21.23
2023-06-01T03:06:25.722Z,23.47
2023-06-01T03:08:53.378Z,25.10
2023-06-01T03:11:20.990Z,24.83
2023-06-01T03:13:48.614Z,28.50
2023-06-01T03:16:16.232Z,21.97
2023-06-01T03:18:44.143Z,27.07
2023-06-01T03:21:11.740Z,20.97
2023-06-01T03:23:39.333Z,25.37
2023-06-01T03:26:06.915Z,28.73
2023-06-01T03:28:34.584Z,26.77
2023-06-01T03:31:02.307Z,31.83
2023-06-01T03:33:30.171Z,32.93
2023-06-01T03:35:57.953Z,32.97
2023-06-01T03:38:25.583Z,33.83
2023-06-01T03:40:53.204Z,39.70
2023-06-01T03:43:21.125Z,40.57
2023-06-01T03:45:48.699Z,49.80
2023-06-01T03:48:16.284Z,60.20
2023-06-01T03:50:43.797Z,67.83
2023-06-01T03:53:11.436Z,65.53
2023-06-01T03:55:38.954Z,70.90
2023-06-01T03:58:06.614Z,72.87
2023-06-01T04:00:34.156Z,69.07
2023-06-01T04:03:02.438Z,64.83
2023-06-01T04:05:34.283Z,61.90
2023-06-01T04:08:02.292Z,65.13
2023-06-01T04:10:29.903Z,75.30
2023-06-01T04:12:57.677Z,61.07
2023-06-01T04:15:25.390Z,64.93
2023-06-01T04:17:53.022Z,67.63
2023-06-01T04:20:20.727Z,59.90
2023-06-01T04:22:48.374Z,51.40
2023-06-01T04:25:16.832Z,50.30
2023-06-01T04:27:53.487Z,53.33
2023-06-01T04:30:21.130Z,49.07
2023-06-01T04:32:49.425Z,51.37
2023-06-01T04:35:17.750Z,32.60
2023-06-01T04:37:45.363Z,54.63
2023-06-01T04:40:13.438Z,56.63
2023-06-01T04:42:42.531Z,56.73
2023-06-01T04:45:11.411Z,52.97
2023-06-01T04:47:39.505Z,53.77
2023-06-01T04:50:07.847Z,44.57
2023-06-01T04:52:35.539Z,48.80
2023-06-01T04:55:03.826Z,36.83
2023-06-01T04:57:31.383Z,47.27
2023-06-01T04:59:58.973Z,46.73
2023-06-01T05:02:27.039Z,43.10
2023-06-01T05:04:54.638Z,39.97
2023-06-01T05:07:22.252Z,41.53
2023-06-01T05:09:49.863Z,39.23
2023-06-01T05:12:18.322Z,38.03
2023-06-01T05:14:46.973Z,38.23
2023-06-01T05:17:14.572Z,39.30
2023-06-01T05:19:42.249Z,38.70
2023-06-01T05:22:09.765Z,49.27
2023-06-01T05:24:37.421Z,44.53
2023-06-01T05:27:05.161Z,38.53
2023-06-01T05:29:32.786Z,50.80
2023-06-01T05:32:00.432Z,56.57
2023-06-01T05:34:28.089Z,63.77
2023-06-01T05:36:55.672Z,63.80
2023-06-01T05:39:23.331Z,53.23
2023-06-01T05:41:50.914Z,54.03
2023-06-01T05:44:18.508Z,66.93
2023-06-01T05:46:46.037Z,48.80
2023-06-01T05:49:13.743Z,41.90
2023-06-01T05:51:41.931Z,42.93
2023-06-01T05:54:09.594Z,44.47
2023-06-01T05:56:37.331Z,47.50
2023-06-01T05:59:05.158Z,47.83
2023-06-01T06:01:32.796Z,45.13
2023-06-01T06:04:00.665Z,49.60
2023-06-01T06:06:28.261Z,41.67
2023-06-01T06:08:55.925Z,47.17
2023-06-01T06:11:23.490Z,46.20
2023-06-01T06:13:51.260Z,55.53
2023-06-01T06:16:18.911Z,42.00
2023-06-01T06:18:46.511Z,54.73
2023-06-01T06:21:14.849Z,53.20
2023-06-01T06:23:43.378Z,49.53
2023-06-01T06:26:10.952Z,53.30
2023-06-01T06:28:38.518Z,53.10
2023-06-01T06:31:06.117Z,41.80
2023-06-01T06:33:33.750Z,51.40
2023-06-01T06:36:01.346Z,53.40
2023-06-01T06:38:28.952Z,50.40
2023-06-01T06:40:56.594Z,50.03
2023-06-01T06:43:24.306Z,51.00
2023-06-01T06:45:51.857Z,50.03
2023-06-01T06:48:19.454Z,47.73
2023-06-01T06:50:46.980Z,49.63
2023-06-01T06:53:14.584Z,47.73
2023-06-01T06:55:42.288Z,50.70
2023-06-01T06:58:10.028Z,53.47
2023-06-01T07:00:37.556Z,40.97
2023-06-01T07:03:05.334Z,46.87
2023-06-01T07:05:32.929Z,48.43
2023-06-01T07:08:00.601Z,51.07
2023-06-01T07:10:28.256Z,49.07
2023-06-01T07:12:55.936Z,47.07
2023-06-01T07:15:23.554Z,42.57
2023-06-01T07:17:51.264Z,37.70
2023-06-01T07:20:18.947Z,38.67
2023-06-01T07:22:46.593Z,40.60
2023-06-01T07:25:14.149Z,44.53
2023-06-01T07:27:41.817Z,40.20
2023-06-01T07:30:09.451Z,36.83
2023-06-01T07:32:37.240Z,41.53
2023-06-01T07:35:05.150Z,35.13
2023-06-01T07:37:32.793Z,28.10
2023-06-01T07:40:00.354Z,27.73
2023-06-01T07:42:28.059Z,28.10
2023-06-01T07:44:55.616Z,29.87
2023-06-01T07:47:23.313Z,26.77
2023-06-01T07:49:50.945Z,31.43
2023-06-01T07:52:18.740Z,22.57
2023-06-01T07:54:46.332Z,26.77
2023-06-01T07:57:13.949Z,25.40
2023-06-01T07:59:41.552Z,25.50
2023-06-01T08:02:09.183Z,25.07
2023-06-01T08:04:36.819Z,25.33
2023-06-01T08:07:04.949Z,28.47
2023-06-01T08:09:32.605Z,30.73
2023-06-01T08:12:00.338Z,28.87
2023-06-01T08:14:27.886Z,23.10
2023-06-01T08:16:55.559Z,23.53
2023-06-01T08:19:26.031Z,27.37
2023-06-01T08:21:53.685Z,22.90
2023-06-01T08:24:21.286Z,28.23
2023-06-01T08:26:48.869Z,23.40
2023-06-01T08:29:16.523Z,24.47
2023-06-01T08:31:44.753Z,20.67
2023-06-01T08:34:12.332Z,17.60
2023-06-01T08:36:39.971Z,23.53
2023-06-01T08:39:23.723Z,17.97
2023-06-01T08:41:57.478Z,18.67
2023-06-01T08:44:28.550Z,20.53
2023-06-01T08:46:56.306Z,21.00
2023-06-01T08:49:25.742Z,17.40
2023-06-01T08:51:55.549Z,20.90
2023-06-01T08:54:23.287Z,21.03
2023-06-01T08:56:50.972Z,25.40
2023-06-01T08:59:18.868Z,24.03
2023-06-01T09:01:47.917Z,18.93
2023-06-01T09:04:15.800Z,18.17
2023-06-01T09:06:43.937Z,16.77
2023-06-01T09:09:11.682Z,21.67
2023-06-01T09:11:39.396Z,16.37
2023-06-01T09:14:26.443Z,15.17
2023-06-01T09:16:54.156Z,13.03
2023-06-01T09:19:21.788Z,16.97
2023-06-01T09:21:59.068Z,18.87
2023-06-01T09:24:27.214Z,18.30
2023-06-01T09:27:01.848Z,11.67
2023-06-01T09:29:30.972Z,18.47
2023-06-01T09:31:58.584Z,18.30
2023-06-01T09:34:26.382Z,18.93
2023-06-01T09:36:55.134Z,16.03
2023-06-01T09:39:23.664Z,18.63
2023-06-01T09:41:58.195Z,19.60
2023-06-01T09:44:26.828Z,17.10
2023-06-01T09:46:55.935Z,14.90
2023-06-01T09:49:25.622Z,18.30
2023-06-01T09:51:53.810Z,22.17
2023-06-01T09:54:25.854Z,15.37
2023-06-01T09:57:05.405Z,17.13
2023-06-01T09:59:42.272Z,17.00
2023-06-01T10:02:13.626Z,18.50
2023-06-01T10:04:42.195Z,17.13
2023-06-01T10:07:10.219Z,15.47
2023-06-01T10:09:39.281Z,16.87
2023-06-01T10:12:07.193Z,15.23
2023-06-01T10:14:34.944Z,17.67
2023-06-01T10:17:02.585Z,16.03
2023-06-01T10:19:31.041Z,16.77
2023-06-01T10:21:59.212Z,15.17
2023-06-01T10:24:27.568Z,14.80
2023-06-01T10:27:13.738Z,18.30
2023-06-01T10:29:41.631Z,12.23
2023-06-01T10:32:29.187Z,13.93
2023-06-01T10:34:56.894Z,14.87
2023-06-01T10:37:26.670Z,13.40
2023-06-01T10:39:54.330Z,16.90
2023-06-01T10:42:24.828Z,14.53
2023-06-01T10:44:52.533Z,11.07
2023-06-01T10:47:20.208Z,14.80
2023-06-01T10:49:52.818Z,15.17
2023-06-01T10:52:26.905Z,14.93
2023-06-01T10:54:54.820Z,16.23
2023-06-01T10:57:23.489Z,16.10
2023-06-01T11:00:09.941Z,14.10
2023-06-01T11:02:50.161Z,16.07
2023-06-01T11:05:37.195Z,16.30
2023-06-01T11:08:06.100Z,14.13
2023-06-01T11:10:52.296Z,11.90
2023-06-01T11:13:20.562Z,14.30
2023-06-01T11:18:43.264Z,19.67
2023-06-01T11:21:12.206Z,16.87
2023-06-01T11:23:40.011Z,16.37
2023-06-01T11:26:08.509Z,15.07
2023-06-01T11:28:36.592Z,17.17
2023-06-01T11:31:05.082Z,15.10
2023-06-01T11:33:34.786Z,14.30
2023-06-01T11:36:03.408Z,15.97
2023-06-01T11:38:39.716Z,13.30
2023-06-01T11:41:07.937Z,16.43
2023-06-01T11:43:35.947Z,19.90
2023-06-01T11:46:17.653Z,17.83
2023-06-01T11:49:01.657Z,17.77
2023-06-01T11:51:37.675Z,16.67
2023-06-01T11:54:05.829Z,13.50
2023-06-01T11:56:34.095Z,15.80
2023-06-01T11:59:02.772Z,17.53
2023-06-01T12:01:30.807Z,15.47
2023-06-01T12:03:58.636Z,20.23
2023-06-01T12:06:26.748Z,20.67
2023-06-01T12:08:55.054Z,14.17
2023-06-01T12:11:26.897Z,14.67
2023-06-01T12:13:55.764Z,14.80
2023-06-01T12:16:24.029Z,17.30
2023-06-01T12:18:51.709Z,17.07
2023-06-01T12:21:19.350Z,19.00
2023-06-01T12:23:53.031Z,17.37
2023-06-01T12:26:20.706Z,18.30
2023-06-01T12:29:00.005Z,17.37
2023-06-01T12:31:29.075Z,15.63
2023-06-01T12:33:56.836Z,12.87
2023-06-01T12:36:31.474Z,15.93
2023-06-01T12:38:59.599Z,16.83
2023-06-01T12:41:27.442Z,19.63
2023-06-01T12:43:55.151Z,15.87
2023-06-01T12:46:26.775Z,13.13
2023-06-01T12:48:55.624Z,15.83
2023-06-01T12:51:23.694Z,15.07
2023-06-01T12:53:51.398Z,18.17
2023-06-01T12:56:19.213Z,13.77
2023-06-01T12:58:46.916Z,13.77
2023-06-01T13:01:14.509Z,18.23
2023-06-01T13:03:42.290Z,19.07
2023-06-01T13:06:10.268Z,17.40
2023-06-01T13:08:38.603Z,17.80
2023-06-01T13:13:35.591Z,14.30
2023-06-01T13:16:03.865Z,15.43
2023-06-01T13:18:31.710Z,17.00
2023-06-01T13:20:59.682Z,15.83
2023-06-01T13:23:41.300Z,16.53
2023-06-01T13:26:13.885Z,15.97
2023-06-01T13:28:42.228Z,16.30
2023-06-01T13:31:09.921Z,12.23
2023-06-01T13:33:37.692Z,15.07
2023-06-01T13:36:05.732Z,13.63
2023-06-01T13:38:33.465Z,13.30
2023-06-01T13:41:01.392Z,15.00
2023-06-01T13:43:29.254Z,10.30
2023-06-01T13:45:56.905Z,14.70
2023-06-01T13:48:24.611Z,9.93
2023-06-01T13:50:52.275Z,13.17
2023-06-01T13:53:19.977Z,9.90
2023-06-01T13:55:47.661Z,10.90
2023-06-01T13:58:15.518Z,10.87
2023-06-01T14:00:43.729Z,15.23
2023-06-01T14:03:11.718Z,18.43
2023-06-01T14:05:51.812Z,12.37
2023-06-01T14:08:21.670Z,9.30
2023-06-01T14:10:49.420Z,13.60
2023-06-01T14:13:17.095Z,11.23
2023-06-01T14:15:44.932Z,14.07
2023-06-01T14:18:12.908Z,13.57
2023-06-01T14:20:40.652Z,11.80
2023-06-01T14:23:08.527Z,8.27
2023-06-01T14:25:37.092Z,12.47
2023-06-01T14:28:06.004Z,16.17
2023-06-01T14:30:36.079Z,13.20
2023-06-01T14:33:04.450Z,11.37
2023-06-01T14:35:33.824Z,13.97
2023-06-01T14:38:01.663Z,11.20
2023-06-01T14:40:29.632Z,12.35
2023-06-01T14:42:57.806Z,10.90
2023-06-01T14:45:25.406Z,13.77
2023-06-01T14:47:53.121Z,12.27
2023-06-01T14:50:20.725Z,9.47
2023-06-01T14:52:48.389Z,10.90
2023-06-01T14:55:15.997Z,11.70
2023-06-01T14:57:43.639Z,15.67
2023-06-01T15:00:11.424Z,9.90
2023-06-01T15:02:39.171Z,9.97
2023-06-01T15:05:06.896Z,13.07
2023-06-01T15:07:34.506Z,14.07
2023-06-01T15:10:02.113Z,12.33
2023-06-01T15:12:29.997Z,10.47
2023-06-01T15:14:57.655Z,12.10
2023-06-01T15:17:25.430Z,13.57
2023-06-01T15:19:53.181Z,10.13
2023-06-01T15:22:20.895Z,9.87
2023-06-01T15:24:48.572Z,14.03
2023-06-01T15:27:16.319Z,12.93
2023-06-01T15:29:43.996Z,8.83
2023-06-01T15:32:11.678Z,10.60
2023-06-01T15:34:39.333Z,9.67
2023-06-01T15:37:06.960Z,11.20
2023-06-01T15:39:35.634Z,11.07
2023-06-01T15:42:07.345Z,11.70
2023-06-01T15:44:35.110Z,10.37
2023-06-01T15:47:02.800Z,13.93
2023-06-01T15:49:30.575Z,9.93
2023-06-01T15:51:58.257Z,10.13
2023-06-01T15:54:25.968Z,10.43
2023-06-01T15:56:53.568Z,14.77
2023-06-01T15:59:21.570Z,14.03
2023-06-01T16:01:57.138Z,10.60
2023-06-01T16:04:24.834Z,10.40
2023-06-01T16:06:52.441Z,12.33
2023-06-01T16:09:20.113Z,9.60
2023-06-01T16:11:47.687Z,14.87
2023-06-01T16:14:15.488Z,11.30
2023-06-01T16:16:43.133Z,12.33
2023-06-01T16:19:10.870Z,11.77
2023-06-01T16:21:38.515Z,12.30
2023-06-01T16:24:06.293Z,9.80
2023-06-01T16:26:33.972Z,11.20
2023-06-01T16:29:01.725Z,8.80
2023-06-01T16:31:29.455Z,13.03
2023-06-01T16:33:57.147Z,12.33
2023-06-01T16:36:24.714Z,10.47
2023-06-01T16:38:52.345Z,9.77
2023-06-01T16:41:19.932Z,12.47
2023-06-01T16:43:47.602Z,9.57
2023-06-01T16:46:15.217Z,9.33
2023-06-01T16:48:42.854Z,8.83
2023-06-01T16:51:10.403Z,9.90
2023-06-01T16:53:38.015Z,11.07
2023-06-01T16:56:05.850Z,8.27
2023-06-01T16:58:33.832Z,8.80
2023-06-01T17:01:01.699Z,9.37
2023-06-01T17:03:30.722Z,10.50
2023-06-01T17:05:58.487Z,11.70
2023-06-01T17:08:26.198Z,10.57
2023-06-01T17:10:53.795Z,11.23
2023-06-01T17:13:21.503Z,11.13
2023-06-01T17:15:49.678Z,10.13
2023-06-01T17:18:17.526Z,9.30
2023-06-01T17:20:45.207Z,12.97
2023-06-01T17:23:12.870Z,9.63
2023-06-01T17:25:40.421Z,9.47
2023-06-01T17:28:08.141Z,9.67
2023-06-01T17:30:35.929Z,7.80
2023-06-01T17:33:03.692Z,11.27
2023-06-01T17:35:31.322Z,10.70
2023-06-01T17:37:59.190Z,12.20
2023-06-01T17:40:26.997Z,11.37
2023-06-01T17:42:54.936Z,10.93
2023-06-01T17:45:22.575Z,8.37
2023-06-01T17:47:50.308Z,9.63
2023-06-01T17:50:17.951Z,12.30
2023-06-01T17:52:45.635Z,9.97
2023-06-01T17:55:13.184Z,10.00
2023-06-01T17:57:40.988Z,11.97
2023-06-01T18:00:09.033Z,13.00
2023-06-01T18:02:38.699Z,9.20
2023-06-01T18:05:06.555Z,9.20
2023-06-01T18:07:34.169Z,9.67
2023-06-01T18:10:01.926Z,12.33
2023-06-01T18:12:29.654Z,9.93
2023-06-01T18:14:57.297Z,7.90
2023-06-01T18:17:25.057Z,11.10
2023-06-01T18:19:52.730Z,9.47
2023-06-01T18:22:20.366Z,9.53
2023-06-01T18:24:48.024Z,9.47
2023-06-01T18:27:15.606Z,10.60
2023-06-01T18:29:43.329Z,8.23
2023-06-01T18:32:10.916Z,9.60
2023-06-01T18:34:38.629Z,9.60
2023-06-01T18:37:06.589Z,10.70
2023-06-01T18:39:34.349Z,8.67
2023-06-01T18:42:02.073Z,9.87
2023-06-01T18:44:29.693Z,10.03
2023-06-01T18:46:57.342Z,11.33
2023-06-01T18:49:25.002Z,12.73
2023-06-01T18:51:52.631Z,8.30
2023-06-01T18:54:20.655Z,9.10
2023-06-01T18:56:48.587Z,10.23
2023-06-01T18:59:16.239Z,7.87
2023-06-01T19:01:44.075Z,9.87
2023-06-01T19:04:12.571Z,7.57
2023-06-01T19:06:40.357Z,9.50
2023-06-01T19:09:08.578Z,8.37
2023-06-01T19:11:36.159Z,11.00
2023-06-01T19:14:03.970Z,8.67
2023-06-01T19:16:31.882Z,14.13
2023-06-01T19:18:59.856Z,9.90
2023-06-01T19:21:28.358Z,14.63
2023-06-01T19:23:56.849Z,13.43
2023-06-01T19:26:27.130Z,9.03
2023-06-01T19:28:59.846Z,10.40
2023-06-01T19:31:31.863Z,9.83
2023-06-01T19:34:01.857Z,11.43
2023-06-01T19:36:44.964Z,10.80
2023-06-01T19:39:22.090Z,10.13
2023-06-01T19:41:49.807Z,7.00
2023-06-01T19:44:18.038Z,7.70
2023-06-01T19:46:45.916Z,8.37
2023-06-01T19:49:19.329Z,10.20
2023-06-01T19:51:47.997Z,12.17
2023-06-01T19:54:25.477Z,10.27
2023-06-01T19:56:55.762Z,13.10
2023-06-01T19:59:25.005Z,8.57
2023-06-01T20:01:53.155Z,8.90
2023-06-01T20:04:20.923Z,10.53
2023-06-01T20:06:49.889Z,15.47
2023-06-01T20:09:18.856Z,9.53
2023-06-01T20:11:47.704Z,10.97
2023-06-01T20:14:21.632Z,9.17
2023-06-01T20:16:49.668Z,14.43
2023-06-01T20:19:17.380Z,12.43
2023-06-01T20:21:49.078Z,9.67
2023-06-01T20:24:17.164Z,12.17
2023-06-01T20:26:47.855Z,9.80
2023-06-01T20:29:17.641Z,10.87
2023-06-01T20:31:45.354Z,9.37
2023-06-01T20:34:13.658Z,12.50
2023-06-01T20:36:42.184Z,10.33
2023-06-01T20:39:09.806Z,8.47
2023-06-01T20:41:37.617Z,7.13
2023-06-01T20:44:05.258Z,11.03
2023-06-01T20:46:33.347Z,7.10
2023-06-01T20:49:02.718Z,9.73
2023-06-01T20:51:34.538Z,10.70
2023-06-01T20:54:05.944Z,11.60
2023-06-01T20:56:34.988Z,9.63
2023-06-01T20:59:03.772Z,12.23
2023-06-01T21:01:31.419Z,15.13
2023-06-01T21:03:59.189Z,9.33
2023-06-01T21:06:26.877Z,10.47
2023-06-01T21:08:55.290Z,10.00
2023-06-01T21:11:23.436Z,9.27
2023-06-01T21:13:51.167Z,8.67
2023-06-01T21:16:19.554Z,11.53
2023-06-01T21:18:47.436Z,11.00
2023-06-01T21:21:15.095Z,8.47
2023-06-01T21:23:42.748Z,13.30
2023-06-01T21:26:10.398Z,9.13
2023-06-01T21:28:38.227Z,9.27
2023-06-01T21:31:11.313Z,10.97
2023-06-01T21:33:39.535Z,9.07
2023-06-01T21:36:07.808Z,10.07
2023-06-01T21:38:35.548Z,10.13
2023-06-01T21:41:03.897Z,9.20
2023-06-01T21:43:31.637Z,9.10
2023-06-01T21:45:59.303Z,11.17
2023-06-01T21:48:27.091Z,11.73
2023-06-01T21:50:55.025Z,9.77
2023-06-01T21:53:23.426Z,7.33
2023-06-01T21:55:51.891Z,10.60
2023-06-01T21:58:20.996Z,12.87
2023-06-01T22:00:49.480Z,7.47
2023-06-01T22:03:17.921Z,10.83
2023-06-01T22:05:45.800Z,10.40
2023-06-01T22:08:13.708Z,10.03
2023-06-01T22:10:41.453Z,8.47
2023-06-01T22:13:09.192Z,10.97
2023-06-01T22:15:36.839Z,9.83
2023-06-01T22:18:04.670Z,8.80
2023-06-01T22:20:32.304Z,9.03
2023-06-01T22:22:59.967Z,11.50
2023-06-01T22:25:27.689Z,11.27
2023-06-01T22:27:55.358Z,10.90
2023-06-01T22:30:22.941Z,8.17
2023-06-01T22:32:50.668Z,11.10
2023-06-01T22:35:18.300Z,8.20
2023-06-01T22:37:45.973Z,11.53
2023-06-01T22:40:13.686Z,9.33
2023-06-01T22:42:41.347Z,9.70
2023-06-01T22:45:09.071Z,7.57
2023-06-01T22:47:36.753Z,6.63
2023-06-01T22:50:04.496Z,9.07
2023-06-01T22:52:32.195Z,10.30
2023-06-01T22:54:59.820Z,9.30
2023-06-01T22:57:27.459Z,6.83
2023-06-01T22:59:55.121Z,9.00
2023-06-01T23:02:22.778Z,6.07
2023-06-01T23:04:50.362Z,3.93
2023-06-01T23:07:18.004Z,8.93
2023-06-01T23:09:45.632Z,5.93
2023-06-01T23:12:13.372Z,7.30
2023-06-01T23:14:41.565Z,6.97
2023-06-01T23:17:09.290Z,6.53
2023-06-01T23:19:36.905Z,6.13
2023-06-01T23:22:04.823Z,6.77
2023-06-01T23:24:33.147Z,8.27
2023-06-01T23:27:01.352Z,6.17
2023-06-01T23:29:29.558Z,8.50
2023-06-01T23:31:57.462Z,6.30
2023-06-01T23:34:25.890Z,7.23
2023-06-01T23:36:53.709Z,7.50
2023-06-01T23:39:22.007Z,5.67
2023-06-01T23:41:50.149Z,8.20
2023-06-01T23:44:17.846Z,10.17
2023-06-01T23:46:46.026Z,6.97
2023-06-01T23:49:13.941Z,7.90
2023-06-01T23:51:42.093Z,9.63
2023-06-01T23:54:09.684Z,4.67
2023-06-01T23:56:37.363Z,5.33
2023-06-01T23:59:05.001Z,5.00
